Time;durP1;ratioP1;P1;durP2;ratioP2;P2;SDS_P1;SDS_P2;PMS_P1;PMS_P2;Temp;Humidity;BMP_temperature;BMP_pressure;BME280_temperature;BME280_humidity;BME280_pressure;Samples;Min_cycle;Max_cycle;Signal;HPM_P1;HPM_P2
2024/04/19 09:23:32;;;;;;;1.20;0.50;;;;;;;;;;5462103;26;20071;-63
2024/04/19 09:26:02;;;;;;;0.93;0.35;;;;;;;;;;5479063;26;20006;-60
2024/04/19 09:28:28;;;;;;;0.40;0.30;;;;;;;;;;5494936;26;20009;-61
2024/04/19 09:47:05;;;;;;;0.38;0.30;;;;;;;;;;5471697;26;20044;-60
2024/04/19 09:49:32;;;;;;;0.88;0.43;;;;;;;;;;5388248;26;20010;-61
2024/04/19 09:51:58;;;;;;;0.90;0.40;;;;;;;;;;5480103;26;20038;-61
2024/04/19 09:54:30;;;;;;;0.57;0.40;;;;;;;;;;5480283;26;19994;-58
2024/04/19 09:56:57;;;;;;;0.63;0.40;;;;;;;;;;5449228;26;20543;-61
2024/04/19 09:59:24;;;;;;;0.20;0.20;;;;;;;;;;5484348;26;20021;-56
2024/04/19 10:01:51;;;;;;;1.05;0.50;;;;;;;;;;5451376;26;20058;-59
2024/04/19 10:04:16;;;;;;;0.32;0.32;;;;;;;;;;5489578;26;20030;-62
2024/04/19 10:06:42;;;;;;;0.43;0.40;;;;;;;;;;5483297;26;20345;-60
2024/04/19 10:09:13;;;;;;;0.57;0.40;;;;;;;;;;5445637;26;20080;-60
2024/04/19 10:11:42;;;;;;;0.77;0.40;;;;;;;;;;5478401;26;20002;-59
2024/04/19 10:14:07;;;;;;;0.57;0.40;;;;;;;;;;5457092;26;19998;-59
2024/04/19 10:16:33;;;;;;;0.60;0.40;;;;;;;;;;5483772;26;20006;-58
2024/04/19 10:18:58;;;;;;;0.30;0.30;;;;;;;;;;5482943;26;19998;-63
2024/04/19 10:21:26;;;;;;;0.60;0.40;;;;;;;;;;5447316;26;19998;-59
2024/04/19 10:23:51;;;;;;;1.15;0.40;;;;;;;;;;5508211;26;19998;-59
2024/04/19 10:26:21;;;;;;;0.85;0.50;;;;;;;;;;5520466;25;20315;-60
2024/04/19 10:28:56;;;;;;;0.38;0.38;;;;;;;;;;5510459;26;20417;-60
2024/04/19 10:31:21;;;;;;;0.43;0.30;;;;;;;;;;5515611;26;20002;-58
2024/04/19 10:33:47;;;;;;;0.85;0.38;;;;;;;;;;5515697;25;20008;-56
2024/04/19 10:36:12;;;;;;;0.50;0.40;;;;;;;;;;5517655;26;19997;-56
2024/04/19 10:38:38;;;;;;;1.10;0.50;;;;;;;;;;5519679;25;19993;-57
2024/04/19 10:41:04;;;;;;;0.80;0.30;;;;;;;;;;5520119;25;20012;-58
2024/04/19 10:43:31;;;;;;;0.50;0.35;;;;;;;;;;5518795;25;20012;-59
2024/04/19 10:45:57;;;;;;;0.55;0.40;;;;;;;;;;5520496;25;20123;-60
2024/04/19 10:48:22;;;;;;;1.20;0.50;;;;;;;;;;5518328;26;20029;-57
2024/04/19 10:50:48;;;;;;;1.05;0.43;;;;;;;;;;5519882;25;20266;-58
2024/04/19 10:53:16;;;;;;;0.63;0.40;;;;;;;;;;5519195;25;20016;-59
2024/04/19 10:55:42;;;;;;;1.55;0.50;;;;;;;;;;5518141;25;19993;-58
2024/04/19 10:58:07;;;;;;;0.40;0.40;;;;;;;;;;5531481;25;20023;-59
2024/04/19 11:00:32;;;;;;;0.43;0.40;;;;;;;;;;5518828;26;20013;-58
2024/04/19 11:02:58;;;;;;;0.95;0.47;;;;;;;;;;5518826;26;19994;-57
2024/04/19 11:05:24;;;;;;;0.57;0.40;;;;;;;;;;5519947;25;20413;-60
2024/04/19 11:07:49;;;;;;;0.75;0.40;;;;;;;;;;5517639;25;20429;-60
2024/04/19 11:10:15;;;;;;;0.40;0.30;;;;;;;;;;5513805;26;20002;-59
2024/04/19 11:12:40;;;;;;;1.08;0.50;;;;;;;;;;5517526;26;20002;-58
2024/04/19 11:15:07;;;;;;;0.52;0.40;;;;;;;;;;5518928;25;20008;-60
2024/04/19 11:17:32;;;;;;;0.65;0.40;;;;;;;;;;5520227;25;20017;-58
2024/04/19 11:19:58;;;;;;;0.30;0.30;;;;;;;;;;5519508;25;21089;-57
2024/04/19 11:22:23;;;;;;;0.40;0.30;;;;;;;;;;5520723;25;20037;-58
2024/04/19 11:24:53;;;;;;;1.15;0.40;;;;;;;;;;5519578;25;20016;-57
2024/04/19 11:27:18;;;;;;;0.65;0.40;;;;;;;;;;5517965;25;20005;-59
2024/04/19 11:29:43;;;;;;;0.55;0.35;;;;;;;;;;5525101;25;20444;-58
2024/04/19 11:32:09;;;;;;;0.45;0.32;;;;;;;;;;5500249;25;20001;-54
2024/04/19 11:34:34;;;;;;;0.70;0.40;;;;;;;;;;5526888;25;20404;-60
2024/04/19 11:37:06;;;;;;;0.70;0.40;;;;;;;;;;5519236;25;19998;-55
2024/04/19 11:39:32;;;;;;;1.08;0.40;;;;;;;;;;5516792;26;20484;-60
2024/04/19 11:41:58;;;;;;;0.75;0.32;;;;;;;;;;5525673;25;20004;-57
2024/04/19 11:44:23;;;;;;;0.55;0.40;;;;;;;;;;5524992;25;20420;-60
2024/04/19 11:46:48;;;;;;;0.38;0.30;;;;;;;;;;5527018;25;20005;-56
2024/04/19 11:49:15;;;;;;;0.40;0.40;;;;;;;;;;5519365;26;21163;-59
2024/04/19 11:51:45;;;;;;;1.65;0.45;;;;;;;;;;5511065;26;19994;-59
2024/04/19 11:54:11;;;;;;;0.55;0.45;;;;;;;;;;5481274;26;20005;-60
2024/04/19 11:56:36;;;;;;;0.68;0.40;;;;;;;;;;5518310;25;20332;-58
2024/04/19 11:59:02;;;;;;;0.65;0.40;;;;;;;;;;5515300;26;19993;-58
2024/04/19 12:01:27;;;;;;;0.77;0.40;;;;;;;;;;5518026;25;20001;-58
2024/04/19 12:03:54;;;;;;;0.28;0.20;;;;;;;;;;5521562;25;20000;-62
2024/04/19 12:06:21;;;;;;;0.88;0.50;;;;;;;;;;5516703;25;19989;-58
2024/04/19 12:08:50;;;;;;;0.73;0.52;;;;;;;;;;5518602;25;20029;-62
2024/04/19 12:11:16;;;;;;;0.60;0.40;;;;;;;;;;5478210;26;20001;-59
2024/04/19 12:13:46;;;;;;;1.48;0.50;;;;;;;;;;5513829;25;20004;-61
2024/04/19 12:16:11;;;;;;;0.60;0.30;;;;;;;;;;5518993;25;20001;-59
2024/04/19 12:18:36;;;;;;;0.90;0.50;;;;;;;;;;5519359;25;20033;-59
2024/04/19 12:21:02;;;;;;;0.70;0.40;;;;;;;;;;5518519;25;19998;-60
2024/04/19 12:23:27;;;;;;;0.85;0.50;;;;;;;;;;5516933;25;20001;-60
2024/04/19 12:25:53;;;;;;;0.60;0.40;;;;;;;;;;5521525;25;19998;-58
2024/04/19 12:28:23;;;;;;;0.52;0.40;;;;;;;;;;5512006;25;20425;-56
2024/04/19 12:30:48;;;;;;;0.55;0.35;;;;;;;;;;5517335;25;20452;-56
2024/04/19 12:33:15;;;;;;;0.38;0.38;;;;;;;;;;5522870;25;20008;-61
2024/04/19 12:35:40;;;;;;;0.43;0.38;;;;;;;;;;5518051;26;20012;-61
2024/04/19 12:38:06;;;;;;;0.43;0.40;;;;;;;;;;5492137;25;19997;-61
2024/04/19 12:40:31;;;;;;;0.77;0.32;;;;;;;;;;5519242;25;19997;-61
2024/04/19 12:42:57;;;;;;;0.45;0.40;;;;;;;;;;5521568;25;20065;-61
2024/04/19 12:45:23;;;;;;;0.30;0.30;;;;;;;;;;5518651;25;19994;-60
2024/04/19 12:47:48;;;;;;;0.63;0.38;;;;;;;;;;5526161;25;19998;-60
2024/04/19 12:50:13;;;;;;;0.80;0.50;;;;;;;;;;5522159;25;19997;-60
2024/04/19 12:52:39;;;;;;;0.68;0.40;;;;;;;;;;5511174;25;20717;-60
2024/04/19 12:55:06;;;;;;;0.52;0.40;;;;;;;;;;5520800;25;20001;-58
2024/04/19 12:57:31;;;;;;;0.20;0.20;;;;;;;;;;5518125;25;20001;-61
2024/04/19 12:59:56;;;;;;;0.85;0.47;;;;;;;;;;5521740;25;19998;-60
2024/04/19 13:02:24;;;;;;;0.20;0.20;;;;;;;;;;5515385;25;20012;-57
2024/04/19 13:04:50;;;;;;;0.40;0.30;;;;;;;;;;5519773;25;20013;-59
2024/04/19 13:07:15;;;;;;;0.80;0.50;;;;;;;;;;5519278;25;20322;-53
2024/04/19 13:09:40;;;;;;;0.52;0.35;;;;;;;;;;5520869;25;19997;-59
2024/04/19 13:12:06;;;;;;;0.52;0.35;;;;;;;;;;5523910;25;20005;-58
2024/04/19 13:14:31;;;;;;;0.75;0.40;;;;;;;;;;5506710;25;20002;-60
2024/04/19 13:16:56;;;;;;;0.55;0.32;;;;;;;;;;5526520;25;19997;-58
2024/04/19 13:19:22;;;;;;;0.45;0.38;;;;;;;;;;5521001;25;20017;-57
2024/04/19 13:21:48;;;;;;;1.98;0.55;;;;;;;;;;5511604;25;20102;-60
2024/04/19 13:24:14;;;;;;;0.40;0.40;;;;;;;;;;5513905;25;20008;-57
2024/04/19 13:26:39;;;;;;;0.38;0.38;;;;;;;;;;5523928;25;19997;-52
2024/04/19 13:29:05;;;;;;;0.50;0.32;;;;;;;;;;5529849;25;20448;-59
2024/04/19 13:31:30;;;;;;;0.82;0.50;;;;;;;;;;5521107;25;20439;-59
2024/04/19 13:33:55;;;;;;;0.52;0.40;;;;;;;;;;5525731;25;20016;-55
2024/04/19 13:36:21;;;;;;;0.45;0.40;;;;;;;;;;5523434;25;20001;-60
2024/04/19 13:38:47;;;;;;;0.95;0.40;;;;;;;;;;5529829;25;20001;-63
2024/04/19 13:41:12;;;;;;;0.52;0.40;;;;;;;;;;5492223;25;20440;-58
2024/04/19 13:43:38;;;;;;;0.45;0.32;;;;;;;;;;5523731;25;20007;-58
2024/04/19 13:46:03;;;;;;;0.80;0.40;;;;;;;;;;5521389;25;20012;-61
2024/04/19 13:48:38;;;;;;;0.73;0.38;;;;;;;;;;5532491;25;20889;-60
2024/04/19 13:51:06;;;;;;;0.47;0.30;;;;;;;;;;5522004;25;20078;-52
2024/04/19 13:53:35;;;;;;;0.32;0.28;;;;;;;;;;5524863;25;20659;-58
2024/04/19 13:56:02;;;;;;;0.20;0.20;;;;;;;;;;5522905;25;19997;-59
2024/04/19 13:58:29;;;;;;;0.28;0.28;;;;;;;;;;5521064;26;20095;-61
2024/04/19 14:00:55;;;;;;;0.30;0.30;;;;;;;;;;5525356;25;20024;-57
2024/04/19 14:03:20;;;;;;;0.52;0.30;;;;;;;;;;5509016;25;21207;-62
2024/04/19 14:05:46;;;;;;;0.40;0.30;;;;;;;;;;5511086;25;19997;-59
2024/04/19 14:08:11;;;;;;;1.23;0.40;;;;;;;;;;5519711;25;20433;-59
2024/04/19 14:10:37;;;;;;;0.22;0.20;;;;;;;;;;5517423;25;20029;-60
2024/04/19 14:13:04;;;;;;;0.47;0.30;;;;;;;;;;5514726;25;19997;-56
2024/04/19 14:15:30;;;;;;;0.55;0.40;;;;;;;;;;5517510;25;20016;-61
2024/04/19 14:17:55;;;;;;;0.35;0.35;;;;;;;;;;5517977;25;20017;-61
2024/04/19 14:20:23;;;;;;;0.30;0.30;;;;;;;;;;5517863;25;20036;-61
2024/04/19 14:22:48;;;;;;;1.05;0.40;;;;;;;;;;5515677;26;20005;-59
2024/04/19 14:25:14;;;;;;;0.85;0.38;;;;;;;;;;5517003;25;20029;-59
2024/04/19 14:27:43;;;;;;;0.50;0.40;;;;;;;;;;5517203;26;20071;-58
2024/04/19 14:30:10;;;;;;;0.22;0.20;;;;;;;;;;5517803;25;19997;-60
2024/04/19 14:32:35;;;;;;;0.80;0.40;;;;;;;;;;5518372;25;20008;-61
2024/04/19 14:35:01;;;;;;;0.30;0.30;;;;;;;;;;5512954;25;19997;-57
2024/04/19 14:37:26;;;;;;;0.38;0.30;;;;;;;;;;5515823;25;20009;-61
2024/04/19 14:39:52;;;;;;;0.40;0.30;;;;;;;;;;5518334;25;20451;-56
2024/04/19 14:42:17;;;;;;;0.50;0.38;;;;;;;;;;5520041;25;20024;-59
2024/04/19 14:44:42;;;;;;;0.40;0.38;;;;;;;;;;5495040;25;20016;-60
2024/04/19 14:47:08;;;;;;;0.47;0.35;;;;;;;;;;5523064;25;20324;-60
2024/04/19 14:49:33;;;;;;;0.65;0.40;;;;;;;;;;5520273;25;20030;-59
2024/04/19 14:52:01;;;;;;;0.28;0.28;;;;;;;;;;5519269;25;20020;-62
2024/04/19 14:54:26;;;;;;;1.00;0.40;;;;;;;;;;5521259;25;19993;-59
2024/04/19 14:56:54;;;;;;;0.38;0.30;;;;;;;;;;5517896;25;20574;-57
2024/04/19 14:59:19;;;;;;;0.70;0.43;;;;;;;;;;5517356;25;20009;-61
2024/04/19 15:01:45;;;;;;;0.45;0.32;;;;;;;;;;5517382;25;20002;-60
2024/04/19 15:04:10;;;;;;;0.70;0.43;;;;;;;;;;5516572;25;20038;-60
2024/04/19 15:06:35;;;;;;;0.80;0.40;;;;;;;;;;5515330;26;19997;-60
2024/04/19 15:09:01;;;;;;;1.17;0.50;;;;;;;;;;5515744;26;20001;-57
2024/04/19 15:11:26;;;;;;;0.40;0.30;;;;;;;;;;5517631;26;20001;-58
2024/04/19 15:13:52;;;;;;;0.68;0.45;;;;;;;;;;5521104;25;20041;-61
2024/04/19 15:16:18;;;;;;;0.75;0.40;;;;;;;;;;5516146;25;20005;-59
2024/04/19 15:18:43;;;;;;;0.57;0.40;;;;;;;;;;5517302;25;19993;-60
2024/04/19 15:21:09;;;;;;;0.47;0.35;;;;;;;;;;5511540;25;20071;-60
2024/04/19 15:23:34;;;;;;;0.60;0.40;;;;;;;;;;5516458;25;20077;-62
2024/04/19 15:26:00;;;;;;;1.35;0.40;;;;;;;;;;5526278;25;19994;-58
2024/04/19 15:28:25;;;;;;;0.73;0.50;;;;;;;;;;5506412;25;20667;-58
2024/04/19 15:30:50;;;;;;;0.90;0.45;;;;;;;;;;5513529;26;20002;-60
2024/04/19 15:33:16;;;;;;;0.38;0.30;;;;;;;;;;5525714;25;20445;-59
2024/04/19 15:35:41;;;;;;;0.70;0.40;;;;;;;;;;5518799;25;19993;-62
2024/04/19 15:38:09;;;;;;;1.10;0.52;;;;;;;;;;5515683;25;20016;-60
2024/04/19 15:40:38;;;;;;;0.85;0.50;;;;;;;;;;5515150;26;21214;-60
2024/04/19 15:43:03;;;;;;;0.40;0.40;;;;;;;;;;5516558;25;20029;-59
2024/04/19 15:45:29;;;;;;;0.43;0.30;;;;;;;;;;5515653;25;20001;-56
2024/04/19 15:47:54;;;;;;;0.55;0.35;;;;;;;;;;5515338;25;19997;-61
2024/04/19 15:50:20;;;;;;;0.80;0.30;;;;;;;;;;5517375;25;19998;-60
2024/04/19 15:52:45;;;;;;;2.83;0.40;;;;;;;;;;5510241;25;20001;-59
2024/04/19 15:55:11;;;;;;;1.25;0.60;;;;;;;;;;5515121;25;19993;-60
2024/04/19 15:57:40;;;;;;;0.98;0.50;;;;;;;;;;5515134;25;20096;-60
2024/04/19 16:00:06;;;;;;;0.40;0.40;;;;;;;;;;5515991;25;20001;-60
2024/04/19 16:02:32;;;;;;;0.40;0.40;;;;;;;;;;5515592;25;19997;-59
2024/04/19 16:04:58;;;;;;;2.22;0.63;;;;;;;;;;5517499;25;20069;-57
2024/04/19 16:07:23;;;;;;;1.25;0.50;;;;;;;;;;5512904;25;20005;-60
2024/04/19 16:09:48;;;;;;;1.33;0.60;;;;;;;;;;5514932;26;19998;-56
2024/04/19 16:12:14;;;;;;;1.10;0.50;;;;;;;;;;5517824;25;20694;-61
2024/04/19 16:14:40;;;;;;;1.42;0.60;;;;;;;;;;5550555;25;20008;-58
2024/04/19 16:17:06;;;;;;;1.52;0.50;;;;;;;;;;5552639;25;20000;-62
2024/04/19 16:19:31;;;;;;;1.92;0.50;;;;;;;;;;5553001;25;20414;-60
2024/04/19 16:21:57;;;;;;;1.30;0.50;;;;;;;;;;5553190;25;20280;-56
2024/04/19 16:24:22;;;;;;;2.95;0.60;;;;;;;;;;5549566;25;20012;-58
2024/04/19 16:26:47;;;;;;;0.90;0.50;;;;;;;;;;5552725;25;20000;-58
2024/04/19 16:29:13;;;;;;;0.95;0.60;;;;;;;;;;5552961;25;20679;-62
2024/04/19 16:31:38;;;;;;;0.93;0.50;;;;;;;;;;5522136;25;20013;-57
2024/04/19 16:34:04;;;;;;;1.30;0.63;;;;;;;;;;5494249;26;20002;-60
2024/04/19 16:36:29;;;;;;;1.85;0.65;;;;;;;;;;5506804;26;20042;-59
2024/04/19 16:38:54;;;;;;;0.70;0.47;;;;;;;;;;5501019;26;20397;-60
2024/04/19 16:41:20;;;;;;;1.92;0.60;;;;;;;;;;5493386;26;20005;-60
2024/04/19 16:43:45;;;;;;;1.58;0.60;;;;;;;;;;5518336;25;19997;-58
2024/04/19 16:46:11;;;;;;;2.78;0.57;;;;;;;;;;5512799;26;20001;-61
2024/04/19 16:48:36;;;;;;;0.77;0.50;;;;;;;;;;5498150;26;19997;-58
2024/04/19 16:51:01;;;;;;;1.10;0.60;;;;;;;;;;5513708;26;19994;-59
2024/04/19 16:53:27;;;;;;;1.35;0.70;;;;;;;;;;5515103;26;20687;-59
2024/04/19 16:55:52;;;;;;;2.10;0.47;;;;;;;;;;5515762;26;19997;-58
2024/04/19 16:58:17;;;;;;;1.63;0.60;;;;;;;;;;5514635;26;19997;-58
2024/04/19 17:00:43;;;;;;;1.13;0.60;;;;;;;;;;5515850;26;20078;-59
2024/04/19 17:03:08;;;;;;;3.65;0.70;;;;;;;;;;5526947;25;20093;-58
2024/04/19 17:05:36;;;;;;;1.90;0.70;;;;;;;;;;5534201;25;19997;-59
2024/04/19 17:08:03;;;;;;;2.03;0.60;;;;;;;;;;5535181;25;19997;-57
2024/04/19 17:10:30;;;;;;;2.47;0.68;;;;;;;;;;5486219;26;19997;-56
2024/04/19 17:12:55;;;;;;;2.00;0.77;;;;;;;;;;5493528;26;20005;-59
2024/04/19 17:15:21;;;;;;;1.25;0.63;;;;;;;;;;5517956;26;20005;-59
2024/04/19 17:17:51;;;;;;;2.17;0.88;;;;;;;;;;5489756;26;20077;-58
2024/04/19 17:20:17;;;;;;;2.25;0.88;;;;;;;;;;5485809;26;19997;-59
2024/04/19 17:22:43;;;;;;;1.80;0.82;;;;;;;;;;5517727;26;20711;-58
2024/04/19 17:25:08;;;;;;;2.25;0.80;;;;;;;;;;5517146;26;19997;-60
2024/04/19 17:27:33;;;;;;;1.38;0.70;;;;;;;;;;5520905;25;20012;-57
2024/04/19 17:29:59;;;;;;;1.13;0.55;;;;;;;;;;5516444;26;20018;-60
2024/04/19 17:32:25;;;;;;;19.98;1.00;;;;;;;;;;5519197;25;19997;-60
2024/04/19 17:34:50;;;;;;;7.80;1.00;;;;;;;;;;5495395;25;20328;-59
2024/04/19 17:37:16;;;;;;;7.82;1.10;;;;;;;;;;5509008;26;20002;-61
2024/04/19 17:39:42;;;;;;;4.97;0.95;;;;;;;;;;5516653;26;20132;-61
2024/04/19 17:42:07;;;;;;;3.70;1.05;;;;;;;;;;5515291;26;20038;-61
2024/04/19 17:44:33;;;;;;;5.95;0.90;;;;;;;;;;5510799;25;19994;-60
2024/04/19 17:46:58;;;;;;;1.83;0.85;;;;;;;;;;5519824;25;20005;-61
2024/04/19 17:49:24;;;;;;;1.90;0.85;;;;;;;;;;5529927;25;20012;-61
2024/04/19 17:51:50;;;;;;;1.77;0.65;;;;;;;;;;5515647;26;20001;-63
2024/04/19 17:54:18;;;;;;;3.28;0.98;;;;;;;;;;5535316;25;20005;-61
2024/04/19 17:56:43;;;;;;;7.07;0.90;;;;;;;;;;5533965;25;20011;-60
2024/04/19 17:59:09;;;;;;;2.78;0.98;;;;;;;;;;5531071;25;20000;-61
2024/04/19 18:01:34;;;;;;;1.70;0.70;;;;;;;;;;5533625;25;19997;-59
2024/04/19 18:04:00;;;;;;;3.42;0.98;;;;;;;;;;5530869;25;19996;-61
2024/04/19 18:06:25;;;;;;;3.53;1.00;;;;;;;;;;5525577;25;20437;-61
2024/04/19 18:08:50;;;;;;;2.40;1.20;;;;;;;;;;5517975;26;20243;-60
2024/04/19 18:11:16;;;;;;;2.72;0.80;;;;;;;;;;5528488;25;20031;-59
2024/04/19 18:13:41;;;;;;;4.32;1.10;;;;;;;;;;5528831;25;19997;-58
2024/04/19 18:16:07;;;;;;;1.95;0.90;;;;;;;;;;5515906;26;20001;-60
2024/04/19 18:18:33;;;;;;;2.45;1.02;;;;;;;;;;5519937;26;20410;-59
2024/04/19 18:20:59;;;;;;;2.75;1.00;;;;;;;;;;5521006;26;20068;-61
2024/04/19 18:23:26;;;;;;;2.10;1.23;;;;;;;;;;5486354;26;20562;-61
2024/04/19 18:25:51;;;;;;;4.20;0.90;;;;;;;;;;5486023;26;20480;-60
2024/04/19 18:28:18;;;;;;;2.78;1.10;;;;;;;;;;5486234;26;19998;-60
2024/04/19 18:30:44;;;;;;;2.33;0.95;;;;;;;;;;5486234;26;20034;-61
2024/04/19 18:33:10;;;;;;;2.28;1.02;;;;;;;;;;5485941;26;20609;-61
2024/04/19 18:35:35;;;;;;;4.30;1.25;;;;;;;;;;5486441;26;20012;-60
2024/04/19 18:38:00;;;;;;;5.50;1.15;;;;;;;;;;5486164;26;19998;-58
2024/04/19 18:40:26;;;;;;;4.82;1.10;;;;;;;;;;5485745;26;19998;-60
2024/04/19 18:42:51;;;;;;;1.92;0.80;;;;;;;;;;5486510;26;19994;-57
2024/04/19 18:45:16;;;;;;;2.10;0.95;;;;;;;;;;5486339;26;20008;-61
2024/04/19 18:47:45;;;;;;;1.83;0.93;;;;;;;;;;5486375;26;20319;-62
2024/04/19 18:50:11;;;;;;;4.30;1.02;;;;;;;;;;5453975;26;20010;-61
2024/04/19 18:52:36;;;;;;;2.45;0.88;;;;;;;;;;5485669;26;20020;-61
2024/04/19 18:55:02;;;;;;;2.38;1.10;;;;;;;;;;5480293;26;19995;-59
2024/04/19 18:57:27;;;;;;;1.52;0.85;;;;;;;;;;5485153;26;20690;-52
2024/04/19 18:59:53;;;;;;;4.53;1.05;;;;;;;;;;5486281;26;20013;-54
2024/04/19 19:02:19;;;;;;;3.53;1.20;;;;;;;;;;5486039;26;20364;-61
2024/04/19 19:04:44;;;;;;;2.92;0.90;;;;;;;;;;5499625;26;20006;-61
2024/04/19 19:07:10;;;;;;;2.33;1.10;;;;;;;;;;5495394;26;20455;-58
2024/04/19 19:09:36;;;;;;;3.40;1.30;;;;;;;;;;5499458;26;20009;-61
2024/04/19 19:12:03;;;;;;;2.72;1.10;;;;;;;;;;5491441;26;19994;-60
2024/04/19 19:14:28;;;;;;;2.97;0.93;;;;;;;;;;5489299;26;20008;-61
2024/04/19 19:16:54;;;;;;;3.45;1.58;;;;;;;;;;5496865;26;19993;-59
2024/04/19 19:19:19;;;;;;;2.47;1.00;;;;;;;;;;5501720;26;20002;-59
2024/04/19 19:21:45;;;;;;;3.50;1.13;;;;;;;;;;5501197;26;20417;-55
2024/04/19 19:24:11;;;;;;;2.55;1.02;;;;;;;;;;5516701;26;20101;-54
2024/04/19 19:26:36;;;;;;;2.55;1.08;;;;;;;;;;5523218;25;20001;-61
2024/04/19 19:29:06;;;;;;;3.78;1.20;;;;;;;;;;5521990;25;20092;-62
2024/04/19 19:31:31;;;;;;;2.30;1.10;;;;;;;;;;5520692;25;20314;-61
2024/04/19 19:33:57;;;;;;;2.22;1.10;;;;;;;;;;5523180;26;20071;-62
2024/04/19 19:36:22;;;;;;;2.65;1.20;;;;;;;;;;5521961;26;20066;-62
2024/04/19 19:38:49;;;;;;;2.08;1.10;;;;;;;;;;5522927;25;19993;-56
2024/04/19 19:41:14;;;;;;;2.38;1.17;;;;;;;;;;5522719;25;20441;-57
2024/04/19 19:43:39;;;;;;;2.33;1.15;;;;;;;;;;5514149;26;19998;-53
2024/04/19 19:46:09;;;;;;;2.20;1.00;;;;;;;;;;5509692;26;19989;-56
2024/04/19 19:48:34;;;;;;;2.70;1.17;;;;;;;;;;5518593;25;20132;-55
2024/04/19 19:51:02;;;;;;;3.97;1.10;;;;;;;;;;5522070;25;20346;-57
2024/04/19 19:53:28;;;;;;;4.20;1.40;;;;;;;;;;5518830;26;19997;-58
2024/04/19 19:55:54;;;;;;;1.95;0.93;;;;;;;;;;5521894;26;20004;-56
2024/04/19 19:58:19;;;;;;;2.90;1.38;;;;;;;;;;5522323;25;20001;-55
2024/04/19 20:06:13;;;;;;;3.53;1.20;;;;;;;;;;5521388;26;20024;-61
2024/04/19 20:08:38;;;;;;;3.00;1.30;;;;;;;;;;5520925;25;20005;-63
2024/04/19 20:11:03;;;;;;;5.53;1.30;;;;;;;;;;5517360;25;19997;-62
2024/04/19 20:13:29;;;;;;;2.53;1.30;;;;;;;;;;5521994;25;19997;-61
2024/04/19 20:15:56;;;;;;;2.22;1.15;;;;;;;;;;5521336;25;20004;-63
2024/04/19 20:18:22;;;;;;;2.92;1.20;;;;;;;;;;5521689;25;20033;-63
2024/04/19 20:20:48;;;;;;;3.47;1.13;;;;;;;;;;5507931;25;20046;-63
2024/04/19 20:23:15;;;;;;;2.60;1.13;;;;;;;;;;5520816;25;19997;-62
2024/04/19 20:25:41;;;;;;;3.03;1.05;;;;;;;;;;5519470;26;20011;-62
2024/04/19 20:28:07;;;;;;;2.47;1.10;;;;;;;;;;5520273;25;19997;-60
2024/04/19 20:30:32;;;;;;;2.25;1.10;;;;;;;;;;5521512;25;20685;-63
2024/04/19 20:32:57;;;;;;;2.30;1.08;;;;;;;;;;5519791;25;20005;-63
2024/04/19 20:35:23;;;;;;;2.53;1.17;;;;;;;;;;5521791;25;20002;-63
2024/04/19 20:37:48;;;;;;;2.60;1.20;;;;;;;;;;5521560;25;20001;-62
2024/04/19 20:40:14;;;;;;;3.15;1.38;;;;;;;;;;5520319;26;19997;-63
2024/04/19 20:42:39;;;;;;;2.00;0.95;;;;;;;;;;5519522;25;19997;-62
2024/04/19 20:45:05;;;;;;;2.42;1.15;;;;;;;;;;5518883;26;20751;-62
2024/04/19 20:47:34;;;;;;;3.10;1.35;;;;;;;;;;5520618;25;20445;-63
2024/04/19 20:50:01;;;;;;;2.85;1.20;;;;;;;;;;5502141;25;20426;-62
2024/04/19 20:52:27;;;;;;;2.53;1.00;;;;;;;;;;5517409;25;20005;-62
2024/04/19 20:54:52;;;;;;;3.00;1.23;;;;;;;;;;5499710;26;20014;-63
2024/04/19 20:57:18;;;;;;;2.95;1.20;;;;;;;;;;5508110;26;20506;-62
2024/04/19 20:59:46;;;;;;;3.15;1.10;;;;;;;;;;5519688;25;20559;-62
2024/04/19 21:02:12;;;;;;;3.55;1.10;;;;;;;;;;5517340;26;20009;-61
2024/04/19 21:04:37;;;;;;;3.28;1.38;;;;;;;;;;5519134;25;19997;-62
2024/04/19 21:07:03;;;;;;;4.13;1.50;;;;;;;;;;5518755;26;19997;-64
2024/04/19 21:09:28;;;;;;;2.30;1.10;;;;;;;;;;5519127;25;20040;-61
2024/04/19 21:11:53;;;;;;;4.10;1.20;;;;;;;;;;5518983;25;20009;-63
2024/04/19 21:14:18;;;;;;;2.50;1.40;;;;;;;;;;5519780;25;20006;-63
2024/04/19 21:16:45;;;;;;;3.28;1.20;;;;;;;;;;5518862;25;20029;-60
2024/04/19 21:19:10;;;;;;;2.08;1.13;;;;;;;;;;5518743;25;20084;-61
2024/04/19 21:21:35;;;;;;;3.13;1.30;;;;;;;;;;5510719;25;20039;-63
2024/04/19 21:24:01;;;;;;;3.85;1.42;;;;;;;;;;5485966;26;20531;-62
2024/04/19 21:26:27;;;;;;;2.63;1.20;;;;;;;;;;5450601;26;20453;-63
2024/04/19 21:28:54;;;;;;;2.88;1.20;;;;;;;;;;5481095;26;19994;-61
2024/04/19 21:31:19;;;;;;;2.85;1.63;;;;;;;;;;5481189;26;20337;-62
2024/04/19 21:33:44;;;;;;;2.53;1.35;;;;;;;;;;5492155;26;20013;-63
2024/04/19 21:36:10;;;;;;;2.58;1.30;;;;;;;;;;5487835;26;20002;-62
2024/04/19 21:38:35;;;;;;;3.40;1.40;;;;;;;;;;5483982;26;20004;-63
2024/04/19 21:41:04;;;;;;;2.33;1.10;;;;;;;;;;5471971;26;20009;-63
2024/04/19 21:43:31;;;;;;;3.42;1.10;;;;;;;;;;5478259;26;19998;-63
2024/04/19 21:46:04;;;;;;;2.38;1.08;;;;;;;;;;5492750;26;20506;-62
2024/04/19 21:48:29;;;;;;;4.30;1.10;;;;;;;;;;5451765;26;20021;-63
2024/04/19 21:50:54;;;;;;;2.35;1.20;;;;;;;;;;5491180;26;20528;-62
2024/04/19 21:53:20;;;;;;;2.75;1.40;;;;;;;;;;5480146;26;20010;-63
2024/04/19 21:55:45;;;;;;;4.38;1.83;;;;;;;;;;5485810;26;20017;-62
2024/04/19 21:58:11;;;;;;;3.13;1.20;;;;;;;;;;5490477;26;20006;-61
2024/04/19 22:00:36;;;;;;;6.30;2.95;;;;;;;;;;5483885;26;20410;-63
2024/04/19 22:03:01;;;;;;;3.13;1.27;;;;;;;;;;5485085;26;20068;-63
2024/04/19 22:05:27;;;;;;;3.72;1.50;;;;;;;;;;5493529;26;20012;-55
2024/04/19 22:07:52;;;;;;;4.45;1.45;;;;;;;;;;5493630;26;20017;-62
2024/04/19 22:10:17;;;;;;;2.95;1.50;;;;;;;;;;5486092;26;20005;-62
2024/04/19 22:12:43;;;;;;;11.65;1.67;;;;;;;;;;5495454;26;20131;-62
2024/04/19 22:15:08;;;;;;;3.58;1.48;;;;;;;;;;5486266;26;20009;-61
2024/04/19 22:17:33;;;;;;;5.38;1.40;;;;;;;;;;5479830;26;20010;-62
2024/04/19 22:19:59;;;;;;;5.03;1.27;;;;;;;;;;5485485;26;20001;-59
2024/04/19 22:22:24;;;;;;;5.85;1.48;;;;;;;;;;5502645;26;20002;-58
2024/04/19 22:24:53;;;;;;;3.80;1.33;;;;;;;;;;5511717;26;20002;-59
2024/04/19 22:27:18;;;;;;;3.47;1.80;;;;;;;;;;5504792;26;20075;-58
2024/04/19 22:29:44;;;;;;;4.38;1.50;;;;;;;;;;5505874;26;20005;-59
2024/04/19 22:32:10;;;;;;;4.95;1.50;;;;;;;;;;5483064;26;19991;-59
2024/04/19 22:34:36;;;;;;;5.70;1.67;;;;;;;;;;5502991;26;20012;-58
2024/04/19 22:37:01;;;;;;;5.03;1.75;;;;;;;;;;5503945;26;20006;-58
2024/04/19 22:39:27;;;;;;;9.70;1.70;;;;;;;;;;5485550;26;20034;-58
2024/04/19 22:41:56;;;;;;;4.38;1.52;;;;;;;;;;5486439;26;20025;-58
2024/04/19 22:44:22;;;;;;;4.18;1.42;;;;;;;;;;5488758;26;20371;-58
2024/04/19 22:46:49;;;;;;;5.00;1.45;;;;;;;;;;5487846;26;20009;-57
2024/04/19 22:49:15;;;;;;;3.55;1.33;;;;;;;;;;5469558;26;20039;-58
2024/04/19 22:51:40;;;;;;;6.47;1.52;;;;;;;;;;5495217;26;20591;-58
2024/04/19 22:54:05;;;;;;;4.88;1.48;;;;;;;;;;5493272;26;20075;-59
2024/04/19 22:56:31;;;;;;;3.47;1.67;;;;;;;;;;5487705;26;20010;-56
2024/04/19 22:58:58;;;;;;;6.53;1.50;;;;;;;;;;5465943;26;19998;-58
2024/04/19 23:01:24;;;;;;;2.95;1.48;;;;;;;;;;5476204;26;20008;-61
2024/04/19 23:03:49;;;;;;;3.78;1.50;;;;;;;;;;5514466;26;20011;-60
2024/04/19 23:06:16;;;;;;;3.92;1.58;;;;;;;;;;5500413;26;20001;-59
2024/04/19 23:08:41;;;;;;;3.60;1.52;;;;;;;;;;5503005;26;20006;-61
2024/04/19 23:11:07;;;;;;;3.13;1.40;;;;;;;;;;5497518;26;19998;-62
2024/04/19 23:13:32;;;;;;;5.10;1.42;;;;;;;;;;5512702;26;20001;-58
2024/04/19 23:15:58;;;;;;;3.75;1.58;;;;;;;;;;5501194;26;20070;-58
2024/04/19 23:18:23;;;;;;;3.08;1.50;;;;;;;;;;5490173;26;20011;-59
2024/04/19 23:20:59;;;;;;;3.10;1.38;;;;;;;;;;5514429;26;20013;-58
2024/04/19 23:23:24;;;;;;;4.03;1.70;;;;;;;;;;5482860;26;20434;-58
2024/04/19 23:26:03;;;;;;;5.65;1.42;;;;;;;;;;5519234;26;20011;-58
2024/04/19 23:28:28;;;;;;;5.30;1.70;;;;;;;;;;5484638;26;20082;-58
2024/04/19 23:30:56;;;;;;;3.38;1.63;;;;;;;;;;5509174;26;20013;-58
2024/04/19 23:33:23;;;;;;;5.53;1.60;;;;;;;;;;5498093;26;19998;-57
2024/04/19 23:35:50;;;;;;;2.80;1.40;;;;;;;;;;5504634;26;20036;-56
2024/04/19 23:38:16;;;;;;;3.40;1.58;;;;;;;;;;5500102;26;20081;-57
2024/04/19 23:40:42;;;;;;;2.38;1.20;;;;;;;;;;5514679;26;20010;-57
2024/04/19 23:43:07;;;;;;;3.60;1.70;;;;;;;;;;5499888;26;20001;-63
2024/04/19 23:45:32;;;;;;;2.85;1.65;;;;;;;;;;5516876;26;19994;-62
2024/04/19 23:47:58;;;;;;;3.38;1.42;;;;;;;;;;5520383;26;20015;-63
2024/04/19 23:50:24;;;;;;;3.00;1.40;;;;;;;;;;5498212;26;20016;-62
2024/04/19 23:52:49;;;;;;;2.70;1.30;;;;;;;;;;5518309;26;20072;-62
2024/04/19 23:55:15;;;;;;;3.75;1.48;;;;;;;;;;5496237;26;20012;-57
2024/04/19 23:57:42;;;;;;;3.35;1.45;;;;;;;;;;5514620;26;20430;-57
